Time;durP1;ratioP1;P1;durP2;ratioP2;P2;SDS_P1;SDS_P2;PMS_P1;PMS_P2;Temp;Humidity;BMP_temperature;BMP_pressure;BME280_temperature;BME280_humidity;BME280_pressure;Samples;Min_cycle;Max_cycle;Signal;HPM_P1;HPM_P2
2021/01/07 00:00:54;;;;;;;139.02;64.28;;;;;;;0.67;100.00;98214.75;2098237;28;20222;-70
2021/01/07 00:01:55;;;;;;;139.57;65.67;;;;;;;0.67;100.00;98222.63;2097281;28;20676;-70
2021/01/07 00:02:56;;;;;;;140.57;69.18;;;;;;;0.62;100.00;98225.22;2097428;28;20222;-70
2021/01/07 00:03:58;;;;;;;150.27;67.03;;;;;;;0.56;100.00;98222.53;2096885;28;20305;-71
2021/01/07 00:04:59;;;;;;;134.68;63.40;;;;;;;0.56;100.00;98219.91;2097434;28;20683;-70
2021/01/07 00:06:01;;;;;;;135.98;65.18;;;;;;;0.55;100.00;98228.84;2104332;28;20229;-70
2021/01/07 00:07:01;;;;;;;136.88;66.15;;;;;;;0.44;100.00;98208.81;2105685;28;20248;-71
2021/01/07 00:08:03;;;;;;;137.87;63.73;;;;;;;0.53;100.00;98220.44;2105370;28;20333;-70
2021/01/07 00:09:03;;;;;;;138.13;65.22;;;;;;;0.54;100.00;98219.38;2097113;28;20279;-70
2021/01/07 00:10:06;;;;;;;130.10;61.20;;;;;;;0.46;100.00;98205.94;2105760;28;20370;-71
2021/01/07 00:11:08;;;;;;;127.40;62.95;;;;;;;0.48;100.00;98225.63;2097747;28;20591;-74
2021/01/07 00:12:09;;;;;;;142.57;65.78;;;;;;;0.47;100.00;98231.91;2097271;28;20260;-70
2021/01/07 00:13:10;;;;;;;146.43;66.40;;;;;;;0.49;100.00;98229.84;2097287;28;20232;-70
2021/01/07 00:14:12;;;;;;;147.77;65.70;;;;;;;0.49;100.00;98232.47;2096824;28;20249;-70
2021/01/07 00:15:13;;;;;;;142.52;67.13;;;;;;;0.47;100.00;98236.38;2097365;28;20230;-71
2021/01/07 00:16:14;;;;;;;140.43;65.25;;;;;;;0.50;100.00;98241.91;2104365;28;20229;-70
2021/01/07 00:17:15;;;;;;;142.07;65.03;;;;;;;0.46;100.00;98235.59;2105830;28;20217;-70
2021/01/07 00:18:16;;;;;;;129.93;65.57;;;;;;;0.41;100.00;98237.38;2106353;28;20306;-70
2021/01/07 00:19:17;;;;;;;148.23;66.25;;;;;;;0.43;100.00;98241.31;2106494;28;20216;-70
2021/01/07 00:20:19;;;;;;;156.73;68.57;;;;;;;0.45;100.00;98228.75;2106376;28;20240;-70
2021/01/07 00:21:20;;;;;;;153.73;67.55;;;;;;;0.45;100.00;98233.22;2106304;28;20221;-71
2021/01/07 00:22:21;;;;;;;143.60;66.13;;;;;;;0.46;100.00;98232.97;2106478;28;20245;-70
2021/01/07 00:23:22;;;;;;;146.82;67.55;;;;;;;0.43;100.00;98233.44;2105898;28;20576;-72
2021/01/07 00:24:23;;;;;;;140.07;66.30;;;;;;;0.43;100.00;98241.31;2106293;28;20221;-70
2021/01/07 00:25:24;;;;;;;143.15;65.72;;;;;;;0.42;100.00;98245.00;2106319;28;20225;-70
2021/01/07 00:26:25;;;;;;;140.33;63.33;;;;;;;0.41;100.00;98246.03;2106103;28;20318;-70
2021/01/07 00:27:26;;;;;;;137.15;64.50;;;;;;;0.43;100.00;98241.31;2104727;28;20240;-71
2021/01/07 00:28:27;;;;;;;139.07;64.17;;;;;;;0.41;100.00;98238.16;2097119;28;20312;-71
2021/01/07 00:29:28;;;;;;;131.77;64.38;;;;;;;0.43;100.00;98230.81;2096448;28;20694;-70
2021/01/07 00:30:29;;;;;;;150.63;66.17;;;;;;;0.37;100.00;98226.59;2105585;28;20653;-70
2021/01/07 00:31:30;;;;;;;144.75;66.13;;;;;;;0.41;100.00;98232.13;2106262;28;20229;-69
2021/01/07 00:32:31;;;;;;;134.67;65.63;;;;;;;0.39;100.00;98232.38;2106364;28;20217;-70
2021/01/07 00:33:32;;;;;;;137.85;65.10;;;;;;;0.41;100.00;98237.38;2106323;28;20213;-70
2021/01/07 00:34:34;;;;;;;134.87;64.00;;;;;;;0.50;100.00;98254.25;2105527;28;20280;-70
2021/01/07 00:35:34;;;;;;;139.75;65.05;;;;;;;0.49;100.00;98250.03;2105617;28;20307;-71
2021/01/07 00:36:36;;;;;;;136.37;64.50;;;;;;;0.50;100.00;98249.78;2106179;28;20224;-71
2021/01/07 00:37:36;;;;;;;150.10;66.53;;;;;;;0.49;100.00;98245.56;2104940;28;20232;-73
2021/01/07 00:38:38;;;;;;;142.83;63.73;;;;;;;0.57;100.00;98236.47;2105467;28;20225;-71
2021/01/07 00:39:38;;;;;;;136.75;63.30;;;;;;;0.58;100.00;98243.28;2106242;28;20221;-70
2021/01/07 00:40:40;;;;;;;136.97;61.53;;;;;;;0.56;100.00;98251.41;2105381;28;20717;-70
2021/01/07 00:41:40;;;;;;;143.27;63.25;;;;;;;0.54;100.00;98236.97;2105419;28;20225;-70
2021/01/07 00:42:42;;;;;;;142.67;62.93;;;;;;;0.52;100.00;98239.03;2105421;28;21991;-70
2021/01/07 00:43:42;;;;;;;139.88;61.42;;;;;;;0.54;100.00;98255.34;2105352;28;20225;-70
2021/01/07 00:44:44;;;;;;;131.23;58.33;;;;;;;0.61;100.00;98250.69;2106104;28;20217;-70
2021/01/07 00:45:44;;;;;;;124.75;56.72;;;;;;;0.63;100.00;98247.78;2105453;28;20668;-71
2021/01/07 00:46:46;;;;;;;135.43;61.60;;;;;;;0.59;100.00;98244.88;2105265;28;20701;-71
2021/01/07 00:47:46;;;;;;;147.73;60.95;;;;;;;0.47;100.00;98231.91;2105283;28;20679;-71
2021/01/07 00:48:48;;;;;;;140.63;59.90;;;;;;;0.45;100.00;98239.25;2097019;28;20569;-70
2021/01/07 00:49:51;;;;;;;142.30;60.47;;;;;;;0.48;100.00;98244.00;2097230;28;20223;-71
2021/01/07 00:50:54;;;;;;;137.15;61.05;;;;;;;0.51;100.00;98246.13;2097484;28;20255;-70
2021/01/07 00:51:55;;;;;;;131.70;60.50;;;;;;;0.48;100.00;98244.00;2113675;28;20225;-70
2021/01/07 00:52:56;;;;;;;147.47;64.40;;;;;;;0.51;100.00;98248.75;2106073;28;20233;-71
2021/01/07 00:53:58;;;;;;;147.73;60.88;;;;;;;0.50;100.00;98256.88;2105114;28;20221;-70
2021/01/07 00:55:00;;;;;;;149.13;61.58;;;;;;;0.52;100.00;98252.97;2096898;28;20221;-71
2021/01/07 00:56:01;;;;;;;155.90;63.65;;;;;;;0.51;100.00;98258.44;2105377;28;20225;-70
2021/01/07 00:57:05;;;;;;;163.77;65.10;;;;;;;0.47;100.00;98258.16;2105223;28;20563;-71
2021/01/07 00:58:07;;;;;;;148.10;63.15;;;;;;;0.46;100.00;98256.59;2105440;28;20725;-70
2021/01/07 00:59:08;;;;;;;151.73;62.42;;;;;;;0.47;100.00;98254.75;2100359;28;20331;-71
2021/01/07 01:00:10;;;;;;;143.95;64.88;;;;;;;0.43;100.00;98251.03;2101040;28;20703;-71
2021/01/07 01:01:12;;;;;;;156.90;64.15;;;;;;;0.46;100.00;98251.34;2106054;28;20233;-71
2021/01/07 01:02:12;;;;;;;154.90;64.20;;;;;;;0.46;100.00;98255.78;2104858;28;20217;-71
2021/01/07 01:03:13;;;;;;;151.33;63.37;;;;;;;0.50;100.00;98252.41;2105251;28;20225;-71
2021/01/07 01:04:15;;;;;;;149.70;63.78;;;;;;;0.45;100.00;98247.13;2105156;28;20225;-71
2021/01/07 01:05:17;;;;;;;152.90;63.42;;;;;;;0.46;100.00;98250.53;2105245;28;20229;-71
2021/01/07 01:06:18;;;;;;;142.88;63.30;;;;;;;0.43;100.00;98245.78;2106015;28;20225;-71
2021/01/07 01:07:19;;;;;;;146.83;64.30;;;;;;;0.41;100.00;98247.88;2105843;28;20256;-70
2021/01/07 01:08:20;;;;;;;144.80;62.05;;;;;;;0.44;100.00;98256.06;2105184;28;20221;-70
2021/01/07 01:09:21;;;;;;;150.53;63.33;;;;;;;0.44;100.00;98250.00;2105459;28;20248;-70
2021/01/07 01:10:21;;;;;;;147.02;63.65;;;;;;;0.43;100.00;98246.56;2104740;28;20225;-73
2021/01/07 01:11:23;;;;;;;155.53;65.07;;;;;;;0.45;100.00;98254.22;2105284;28;20279;-71
2021/01/07 01:12:23;;;;;;;154.35;65.25;;;;;;;0.51;100.00;98253.97;2105910;28;20306;-71
2021/01/07 01:13:25;;;;;;;150.97;62.60;;;;;;;0.53;100.00;98257.16;2105824;28;20225;-70
2021/01/07 01:14:25;;;;;;;157.30;65.15;;;;;;;0.53;100.00;98251.94;2105045;28;20686;-71
2021/01/07 01:15:27;;;;;;;163.47;65.23;;;;;;;0.51;100.00;98250.56;2096602;28;20667;-70
2021/01/07 01:16:27;;;;;;;164.20;67.05;;;;;;;0.49;100.00;98250.81;2089701;28;20314;-70
2021/01/07 01:17:32;;;;;;;159.00;67.30;;;;;;;0.45;100.00;98248.97;2087816;28;20214;-70
2021/01/07 01:18:33;;;;;;;155.15;65.45;;;;;;;0.46;100.00;98255.78;2089009;28;20281;-70
2021/01/07 01:19:34;;;;;;;149.53;64.90;;;;;;;0.42;100.00;98242.38;2088203;28;20294;-70
2021/01/07 01:20:36;;;;;;;151.40;63.25;;;;;;;0.44;100.00;98245.56;2096716;28;20672;-70
2021/01/07 01:21:37;;;;;;;149.18;66.57;;;;;;;0.43;100.00;98246.56;2097436;28;20225;-69
2021/01/07 01:22:38;;;;;;;157.95;65.53;;;;;;;0.43;100.00;98243.16;2104443;28;20722;-72
2021/01/07 01:23:39;;;;;;;162.15;65.18;;;;;;;0.44;100.00;98250.81;2105158;28;20244;-72
2021/01/07 01:24:41;;;;;;;148.57;64.30;;;;;;;0.43;100.00;98249.19;2105053;28;20671;-72
2021/01/07 01:25:42;;;;;;;159.48;64.85;;;;;;;0.42;100.00;98242.38;2105292;28;20226;-73
2021/01/07 01:26:43;;;;;;;159.17;66.87;;;;;;;0.44;100.00;98245.56;2105863;28;20217;-72
2021/01/07 01:27:44;;;;;;;147.77;64.80;;;;;;;0.44;100.00;98247.38;2104946;28;20233;-71
2021/01/07 01:28:45;;;;;;;154.65;66.22;;;;;;;0.39;100.00;98239.47;2096696;28;20229;-72
2021/01/07 01:29:46;;;;;;;154.18;65.65;;;;;;;0.43;100.00;98237.91;2104205;28;20672;-71
2021/01/07 01:30:47;;;;;;;148.03;62.70;;;;;;;0.44;100.00;98245.56;2113592;28;20575;-72
2021/01/07 01:31:48;;;;;;;163.82;66.50;;;;;;;0.43;100.00;98246.56;2104912;28;20225;-71
2021/01/07 01:32:49;;;;;;;151.67;64.50;;;;;;;0.48;100.00;98241.38;2088731;28;20218;-72
2021/01/07 01:33:50;;;;;;;166.90;66.72;;;;;;;0.48;100.00;98251.88;2096733;28;20222;-72
2021/01/07 01:34:52;;;;;;;168.23;66.03;;;;;;;0.42;100.00;98229.25;2097450;28;20775;-71
2021/01/07 01:35:54;;;;;;;159.30;67.10;;;;;;;0.43;100.00;98237.91;2105361;28;20228;-72
2021/01/07 01:36:55;;;;;;;154.90;66.00;;;;;;;0.44;100.00;98234.28;2104516;28;20304;-71
2021/01/07 01:37:56;;;;;;;200.57;69.82;;;;;;;0.43;100.00;98233.44;2095858;28;20226;-72
2021/01/07 01:38:57;;;;;;;172.47;70.70;;;;;;;0.40;100.00;98235.78;2104964;28;20253;-72
2021/01/07 01:39:58;;;;;;;170.05;66.32;;;;;;;0.34;100.00;98227.06;2104915;28;20733;-72
2021/01/07 01:41:01;;;;;;;195.90;74.73;;;;;;;0.43;100.00;98232.66;2096571;28;20697;-72
2021/01/07 01:42:02;;;;;;;200.48;75.97;;;;;;;0.42;100.00;98228.47;2105015;28;20229;-72
2021/01/07 01:43:03;;;;;;;222.38;81.22;;;;;;;0.42;100.00;98229.25;2105665;28;20231;-71
2021/01/07 01:44:04;;;;;;;193.35;75.88;;;;;;;0.43;100.00;98230.81;2105688;28;20701;-70
2021/01/07 01:45:07;;;;;;;229.00;77.97;;;;;;;0.20;100.00;98199.69;2098145;28;20226;-69
2021/01/07 01:46:07;;;;;;;222.05;79.18;;;;;;;0.47;100.00;98234.53;2096322;28;20232;-70
2021/01/07 01:47:08;;;;;;;236.87;83.47;;;;;;;0.35;100.00;98214.75;2097155;28;20238;-70
2021/01/07 01:48:11;;;;;;;225.38;77.53;;;;;;;0.41;100.00;98237.38;2097251;28;20684;-70
2021/01/07 01:49:13;;;;;;;220.98;77.95;;;;;;;0.36;100.00;98230.28;2097383;28;20234;-69
2021/01/07 01:50:14;;;;;;;221.38;76.78;;;;;;;0.33;100.00;98241.25;2097188;28;20276;-70
2021/01/07 01:51:16;;;;;;;201.77;76.33;;;;;;;0.24;100.00;98238.28;2096325;28;20221;-70
2021/01/07 01:52:17;;;;;;;225.15;79.53;;;;;;;0.27;100.00;98242.25;2087708;28;20450;-70
2021/01/07 01:53:19;;;;;;;207.27;75.70;;;;;;;0.27;100.00;98248.28;2096497;28;20248;-69
2021/01/07 01:54:20;;;;;;;256.83;83.38;;;;;;;0.30;100.00;98240.97;2097248;28;20684;-71
2021/01/07 01:55:21;;;;;;;272.73;81.63;;;;;;;0.27;100.00;98247.50;2096550;28;20649;-70
2021/01/07 01:56:22;;;;;;;260.45;80.15;;;;;;;0.30;100.00;98246.22;2096085;28;20647;-71
2021/01/07 01:57:23;;;;;;;277.83;85.67;;;;;;;0.33;100.00;98251.72;2096374;28;20268;-70
2021/01/07 01:58:24;;;;;;;253.32;82.82;;;;;;;0.33;100.00;98241.25;2096174;28;20229;-70
2021/01/07 01:59:25;;;;;;;276.97;86.57;;;;;;;0.33;100.00;98240.44;2097032;28;20241;-70
2021/01/07 02:00:26;;;;;;;208.05;80.57;;;;;;;0.26;100.00;98238.84;2097209;28;20225;-69
2021/01/07 02:01:27;;;;;;;256.27;81.03;;;;;;;0.24;100.00;98233.03;2096316;28;20234;-71
2021/01/07 02:02:28;;;;;;;200.80;74.65;;;;;;;0.24;100.00;98234.88;2096446;28;20226;-70
2021/01/07 02:03:29;;;;;;;223.03;80.77;;;;;;;0.22;100.00;98240.38;2096023;28;20248;-70
2021/01/07 02:04:30;;;;;;;214.80;79.75;;;;;;;0.15;100.00;98225.88;2096465;28;20221;-70
2021/01/07 02:05:31;;;;;;;229.90;81.37;;;;;;;0.22;100.00;98231.72;2104752;28;20695;-70
2021/01/07 02:06:34;;;;;;;244.07;78.05;;;;;;;0.21;100.00;98233.53;2100454;28;20261;-70
2021/01/07 02:07:38;;;;;;;241.85;82.55;;;;;;;0.23;100.00;98235.91;2090527;28;20317;-71
2021/01/07 02:08:40;;;;;;;260.85;82.72;;;;;;;0.23;100.00;98230.66;2095914;28;20664;-71
2021/01/07 02:09:42;;;;;;;261.48;80.40;;;;;;;0.22;100.00;98223.84;2096369;28;20696;-71
2021/01/07 02:10:43;;;;;;;236.05;76.55;;;;;;;0.24;100.00;98229.63;2097042;28;20222;-71
2021/01/07 02:11:45;;;;;;;210.40;77.93;;;;;;;0.17;100.00;98219.31;2097131;28;20305;-71
2021/01/07 02:12:46;;;;;;;234.38;79.50;;;;;;;0.23;100.00;98230.66;2096127;28;20571;-70
2021/01/07 02:13:48;;;;;;;201.68;79.50;;;;;;;0.15;100.00;98220.63;2096341;28;20740;-70
2021/01/07 02:14:49;;;;;;;220.23;80.57;;;;;;;0.18;100.00;98225.38;2097153;28;20218;-70
2021/01/07 02:15:51;;;;;;;213.07;81.13;;;;;;;0.20;100.00;98220.69;2096999;28;20225;-70
2021/01/07 02:16:54;;;;;;;200.55;79.78;;;;;;;0.12;100.00;98213.25;2096760;28;20225;-71
2021/01/07 02:17:56;;;;;;;208.10;78.30;;;;;;;0.17;100.00;98215.91;2096913;28;20228;-70
2021/01/07 02:18:57;;;;;;;213.20;77.22;;;;;;;0.12;100.00;98213.25;2096997;28;22360;-70
2021/01/07 02:19:59;;;;;;;184.38;76.95;;;;;;;0.15;100.00;98216.16;2095979;28;20226;-71
2021/01/07 02:21:00;;;;;;;197.25;76.38;;;;;;;0.16;100.00;98214.34;2096475;28;20233;-70
2021/01/07 02:22:01;;;;;;;210.57;79.70;;;;;;;0.14;100.00;98217.22;2097041;28;20233;-70
2021/01/07 02:23:02;;;;;;;211.75;78.63;;;;;;;0.16;100.00;98224.81;2097098;28;20308;-70
2021/01/07 02:24:03;;;;;;;208.23;81.20;;;;;;;0.12;100.00;98213.25;2096331;28;20230;-70
2021/01/07 02:25:06;;;;;;;211.65;80.45;;;;;;;0.16;100.00;98219.59;2096220;28;20214;-70
2021/01/07 02:26:06;;;;;;;203.00;78.28;;;;;;;0.18;100.00;98225.38;2095652;28;20284;-73
2021/01/07 02:27:09;;;;;;;195.83;77.73;;;;;;;0.17;100.00;98221.16;2094035;28;20263;-71
2021/01/07 02:28:09;;;;;;;209.60;81.00;;;;;;;0.19;100.00;98225.13;2104586;28;20315;-71
2021/01/07 02:29:11;;;;;;;210.17;80.03;;;;;;;0.21;100.00;98227.50;2105401;28;20233;-71
2021/01/07 02:30:13;;;;;;;210.63;80.35;;;;;;;0.20;100.00;98224.09;2105229;28;20232;-70
2021/01/07 02:31:14;;;;;;;212.45;80.85;;;;;;;0.21;100.00;98224.88;2105317;28;20267;-70
2021/01/07 02:32:15;;;;;;;203.80;78.05;;;;;;;0.22;100.00;98235.13;2105174;28;20752;-70
2021/01/07 02:33:16;;;;;;;211.90;81.90;;;;;;;0.21;100.00;98228.28;2104421;28;20639;-70
2021/01/07 02:34:17;;;;;;;206.43;80.32;;;;;;;0.21;100.00;98217.00;2095952;28;20222;-70
2021/01/07 02:35:19;;;;;;;194.90;77.77;;;;;;;0.21;100.00;98217.81;2104553;28;20305;-71
2021/01/07 02:36:20;;;;;;;197.25;78.40;;;;;;;0.24;100.00;98227.78;2096046;28;20742;-70
2021/01/07 02:37:21;;;;;;;226.53;79.23;;;;;;;0.25;100.00;98231.19;2096114;28;20678;-70
2021/01/07 02:38:22;;;;;;;209.95;80.45;;;;;;;0.16;100.00;98219.59;2102063;28;20221;-71
2021/01/07 02:39:23;;;;;;;199.20;79.07;;;;;;;0.24;100.00;98234.88;2096148;28;20242;-71
2021/01/07 02:40:24;;;;;;;198.55;79.93;;;;;;;0.24;100.00;98232.25;2096693;28;20804;-71
2021/01/07 02:41:25;;;;;;;211.93;82.57;;;;;;;0.27;100.00;98232.56;2096752;28;20599;-71
2021/01/07 02:42:26;;;;;;;219.07;84.55;;;;;;;0.28;100.00;98238.59;2095804;28;20226;-70
2021/01/07 02:43:27;;;;;;;212.63;80.40;;;;;;;0.24;100.00;98229.63;2096227;28;20404;-70
2021/01/07 02:44:28;;;;;;;226.68;83.70;;;;;;;0.16;100.00;98219.59;2104130;28;20251;-70
2021/01/07 02:45:30;;;;;;;214.30;85.72;;;;;;;0.23;100.00;98228.03;2105339;28;20303;-71
2021/01/07 02:46:30;;;;;;;220.90;86.07;;;;;;;0.22;100.00;98229.09;2105230;28;20316;-71
2021/01/07 02:47:32;;;;;;;220.17;82.83;;;;;;;0.24;100.00;98237.50;2105199;28;20230;-70
2021/01/07 02:48:32;;;;;;;209.18;82.88;;;;;;;0.21;100.00;98233.53;2104426;28;20314;-71
2021/01/07 02:49:34;;;;;;;213.70;84.23;;;;;;;0.23;100.00;98234.06;2103518;28;20340;-71
2021/01/07 02:50:35;;;;;;;207.93;81.70;;;;;;;0.13;100.00;98225.34;2105081;28;20213;-71
2021/01/07 02:51:36;;;;;;;221.93;86.55;;;;;;;0.13;100.00;98236.63;2104569;28;20572;-71
2021/01/07 02:52:37;;;;;;;221.60;82.25;;;;;;;0.17;100.00;98240.31;2097962;28;20233;-72
2021/01/07 02:53:38;;;;;;;222.97;84.63;;;;;;;0.19;100.00;98240.09;2104309;28;20756;-72
2021/01/07 02:54:39;;;;;;;218.77;86.75;;;;;;;0.20;100.00;98236.41;2095998;28;20746;-71
2021/01/07 02:55:40;;;;;;;202.20;82.47;;;;;;;0.17;100.00;98235.06;2104455;28;20597;-72
2021/01/07 02:56:41;;;;;;;220.95;85.78;;;;;;;0.18;100.00;98238.50;2105030;28;20670;-72
2021/01/07 02:57:42;;;;;;;214.20;86.40;;;;;;;0.10;100.00;98223.22;2105287;28;20252;-72
2021/01/07 02:58:43;;;;;;;216.02;85.88;;;;;;;0.15;100.00;98231.13;2104411;28;20224;-73
2021/01/07 02:59:44;;;;;;;203.73;88.20;;;;;;;0.13;100.00;98238.44;2104625;28;20776;-71
2021/01/07 03:00:44;;;;;;;227.70;89.03;;;;;;;0.12;100.00;98239.50;2104492;28;20676;-72
2021/01/07 03:01:46;;;;;;;210.10;88.80;;;;;;;0.09;100.00;98222.44;2088545;28;20596;-72
2021/01/07 03:02:46;;;;;;;219.70;92.68;;;;;;;0.14;100.00;98232.16;2096075;28;20287;-72
2021/01/07 03:03:48;;;;;;;220.73;96.20;;;;;;;0.11;100.00;98227.41;2096616;28;20222;-72
2021/01/07 03:04:48;;;;;;;227.88;97.85;;;;;;;0.10;100.00;98216.13;2096732;28;20218;-71
2021/01/07 03:05:50;;;;;;;228.20;96.77;;;;;;;0.09;100.00;98235.53;2096689;28;20221;-71
2021/01/07 03:06:51;;;;;;;220.43;95.43;;;;;;;0.06;100.00;98236.00;2096836;28;20228;-71
2021/01/07 03:07:52;;;;;;;213.37;93.60;;;;;;;0.10;100.00;98226.63;2096307;28;20252;-73
2021/01/07 03:08:53;;;;;;;222.68;94.10;;;;;;;0.02;100.00;98215.81;2104323;28;20658;-71
2021/01/07 03:09:54;;;;;;;221.33;97.60;;;;;;;0.04;100.00;98225.00;2104433;28;20220;-71
2021/01/07 03:10:55;;;;;;;230.50;95.32;;;;;;;0.07;100.00;98226.31;2096548;28;20229;-71
2021/01/07 03:11:56;;;;;;;219.50;93.17;;;;;;;0.13;100.00;98227.94;2096746;28;20245;-71
2021/01/07 03:12:57;;;;;;;222.60;92.78;;;;;;;0.14;100.00;98229.53;2096842;28;20233;-72
2021/01/07 03:13:58;;;;;;;233.23;93.00;;;;;;;0.15;100.00;98224.03;2095995;28;20224;-71
2021/01/07 03:14:59;;;;;;;221.80;93.57;;;;;;;0.12;100.00;98232.41;2096159;28;20222;-71
2021/01/07 03:16:00;;;;;;;222.83;95.93;;;;;;;0.11;100.00;98232.66;2103993;28;20307;-72
2021/01/07 03:17:01;;;;;;;220.43;94.68;;;;;;;0.10;100.00;98228.47;2105210;28;20251;-72
2021/01/07 03:18:02;;;;;;;227.27;93.73;;;;;;;0.10;100.00;98237.13;2105039;28;20229;-72
2021/01/07 03:19:03;;;;;;;218.10;94.53;;;;;;;0.10;100.00;98231.09;2105077;28;20248;-71
2021/01/07 03:20:11;;;;;;;215.23;91.17;;;;;;;0.07;100.00;98223.69;2104359;28;20356;-71
2021/01/07 03:21:13;;;;;;;210.73;93.95;;;;;;;0.10;100.00;98225.84;2104193;28;20271;-72
2021/01/07 03:22:14;;;;;;;209.45;91.35;;;;;;;0.13;100.00;98230.56;2105152;28;20687;-71
2021/01/07 03:23:15;;;;;;;214.73;92.77;;;;;;;0.10;100.00;98225.84;2105239;28;20556;-72
2021/01/07 03:24:16;;;;;;;194.75;92.07;;;;;;;0.10;100.00;98231.09;2104298;28;20217;-71
2021/01/07 03:25:17;;;;;;;208.90;91.13;;;;;;;0.10;100.00;98220.59;2104297;28;20698;-72
2021/01/07 03:26:18;;;;;;;199.25;91.45;;;;;;;0.13;100.00;98225.34;2105101;28;20225;-71
2021/01/07 03:27:19;;;;;;;210.07;92.67;;;;;;;0.09;100.00;98235.53;2104284;28;20248;-72
2021/01/07 03:28:20;;;;;;;222.18;96.28;;;;;;;0.11;100.00;98230.03;2095928;28;20817;-72
2021/01/07 03:29:21;;;;;;;214.40;93.20;;;;;;;0.03;100.00;98227.88;2104427;28;20754;-71
2021/01/07 03:30:22;;;;;;;200.40;91.53;;;;;;;0.10;100.00;98239.75;2104710;28;20221;-73
2021/01/07 03:31:23;;;;;;;201.53;92.33;;;;;;;0.15;100.00;98231.13;2104288;28;20316;-72
2021/01/07 03:32:24;;;;;;;192.95;91.28;;;;;;;0.21;100.00;98233.53;2104252;28;20224;-72
2021/01/07 03:33:25;;;;;;;209.60;92.93;;;;;;;0.17;100.00;98231.66;2105046;28;20620;-71
2021/01/07 03:34:26;;;;;;;200.65;89.47;;;;;;;0.14;100.00;98240.03;2104226;28;21790;-72
2021/01/07 03:35:27;;;;;;;210.97;91.10;;;;;;;0.14;100.00;98230.31;2104363;28;20229;-71
2021/01/07 03:36:29;;;;;;;205.10;92.22;;;;;;;0.19;100.00;98229.59;2105103;28;20667;-71
2021/01/07 03:37:30;;;;;;;211.75;92.10;;;;;;;0.15;100.00;98246.84;2104986;28;20217;-72
2021/01/07 03:38:31;;;;;;;194.05;89.80;;;;;;;0.14;100.00;98232.94;2104159;28;20346;-71
2021/01/07 03:39:32;;;;;;;204.47;90.97;;;;;;;0.15;100.00;98241.59;2095710;28;20222;-71
2021/01/07 03:40:33;;;;;;;200.68;92.75;;;;;;;0.11;100.00;98225.59;2104269;28;20221;-71
2021/01/07 03:41:34;;;;;;;193.40;91.80;;;;;;;0.17;100.00;98237.69;2096619;28;20300;-72
2021/01/07 03:42:35;;;;;;;192.48;88.15;;;;;;;0.15;100.00;98234.53;2096616;28;20260;-71
2021/01/07 03:43:36;;;;;;;196.83;89.67;;;;;;;0.09;100.00;98227.66;2096676;28;20328;-72
2021/01/07 03:44:37;;;;;;;197.35;91.53;;;;;;;0.12;100.00;98229.00;2096409;28;20310;-72
2021/01/07 03:45:38;;;;;;;200.23;89.20;;;;;;;0.12;100.00;98237.66;2096633;28;20236;-72
2021/01/07 03:46:39;;;;;;;185.02;89.03;;;;;;;0.08;100.00;98235.75;2096570;28;20226;-72
2021/01/07 03:47:40;;;;;;;207.30;93.40;;;;;;;0.09;100.00;98240.78;2095720;28;20250;-71
2021/01/07 03:48:41;;;;;;;199.80;91.22;;;;;;;0.12;100.00;98252.59;2095912;28;20624;-73
2021/01/07 03:49:42;;;;;;;205.47;90.70;;;;;;;0.11;100.00;98238.69;2102779;28;20233;-72
2021/01/07 03:50:43;;;;;;;201.32;90.32;;;;;;;-0.02;100.00;98218.91;2095502;28;20257;-71
2021/01/07 03:51:45;;;;;;;212.73;92.57;;;;;;;0.15;100.00;98234.53;2104336;28;20217;-72
2021/01/07 03:52:46;;;;;;;203.25;89.88;;;;;;;0.12;100.00;98240.28;2104817;28;20226;-72
2021/01/07 03:53:47;;;;;;;193.50;89.20;;;;;;;0.09;100.00;98229.47;2104073;28;20225;-72
2021/01/07 03:54:48;;;;;;;215.45;92.28;;;;;;;0.11;100.00;98243.16;2095453;28;20700;-72
2021/01/07 03:55:49;;;;;;;214.60;91.13;;;;;;;0.13;100.00;98241.06;2104341;28;20563;-72
2021/01/07 03:56:50;;;;;;;208.45;92.10;;;;;;;0.20;100.00;98239.84;2105052;28;20675;-73
2021/01/07 03:57:51;;;;;;;229.23;98.47;;;;;;;0.06;100.00;98222.13;2097735;28;20392;-72
2021/01/07 03:58:51;;;;;;;216.57;94.60;;;;;;;0.16;100.00;98243.97;2089080;28;20318;-75
2021/01/07 03:59:53;;;;;;;217.00;95.50;;;;;;;0.10;100.00;98238.94;2095803;28;20214;-73
2021/01/07 04:00:53;;;;;;;220.27;97.63;;;;;;;0.14;100.00;98245.28;2096891;28;20225;-72
2021/01/07 04:01:55;;;;;;;230.60;97.43;;;;;;;0.09;100.00;98239.97;2097290;28;20257;-72
2021/01/07 04:02:55;;;;;;;221.95;97.57;;;;;;;0.14;100.00;98242.66;2088922;28;20226;-72
2021/01/07 04:03:56;;;;;;;222.63;97.80;;;;;;;0.16;100.00;98245.81;2097556;28;20309;-72
2021/01/07 04:04:57;;;;;;;231.38;101.97;;;;;;;0.15;100.00;98231.13;2097259;28;20226;-72
2021/01/07 04:05:58;;;;;;;234.83;99.80;;;;;;;0.13;100.00;98243.69;2097527;28;20272;-73
2021/01/07 04:07:00;;;;;;;218.02;99.28;;;;;;;0.13;100.00;98243.69;2098035;28;20218;-73
2021/01/07 04:08:01;;;;;;;231.90;100.30;;;;;;;0.13;100.00;98243.69;2097184;28;20229;-73
2021/01/07 04:09:02;;;;;;;212.98;96.68;;;;;;;0.12;100.00;98239.50;2097158;28;20222;-72
2021/01/07 04:10:05;;;;;;;222.88;94.97;;;;;;;0.12;100.00;98235.03;2098071;28;20555;-72
2021/01/07 04:11:06;;;;;;;217.95;97.18;;;;;;;0.14;100.00;98232.16;2096866;28;20287;-73
2021/01/07 04:12:07;;;;;;;214.90;95.83;;;;;;;0.14;100.00;98242.66;2096929;28;20237;-73
2021/01/07 04:13:08;;;;;;;222.63;96.82;;;;;;;0.11;100.00;98238.69;2098060;28;20252;-73
2021/01/07 04:14:09;;;;;;;220.87;96.87;;;;;;;0.10;100.00;98226.63;2097169;28;20332;-73
2021/01/07 04:15:11;;;;;;;211.05;96.35;;;;;;;0.17;100.00;98239.50;2097284;28;20241;-73
2021/01/07 04:16:13;;;;;;;220.10;96.20;;;;;;;0.16;100.00;98232.69;2096699;28;20234;-72
2021/01/07 04:17:14;;;;;;;211.65;96.35;;;;;;;0.13;100.00;98234.00;2097375;28;20695;-72
2021/01/07 04:18:15;;;;;;;226.80;98.20;;;;;;;0.11;100.00;98237.91;2105363;28;20730;-72
2021/01/07 04:19:15;;;;;;;228.45;96.13;;;;;;;0.15;100.00;98234.53;2105676;28;20217;-72
2021/01/07 04:20:17;;;;;;;216.90;95.13;;;;;;;0.07;100.00;98221.06;2097197;28;20222;-73
2021/01/07 04:21:18;;;;;;;212.85;96.88;;;;;;;0.14;100.00;98232.16;2097242;28;20617;-73
2021/01/07 04:22:20;;;;;;;211.35;94.80;;;;;;;0.13;100.00;98234.00;2089369;28;20226;-72
2021/01/07 04:23:20;;;;;;;216.43;96.18;;;;;;;0.16;100.00;98230.84;2095133;28;20273;-72
2021/01/07 04:24:22;;;;;;;215.17;96.07;;;;;;;0.15;100.00;98234.53;2105617;28;20721;-72
2021/01/07 04:25:22;;;;;;;228.02;99.88;;;;;;;0.16;100.00;98235.31;2105959;28;20237;-72
2021/01/07 04:26:24;;;;;;;209.30;94.07;;;;;;;0.13;100.00;98231.38;2105429;28;20304;-73
2021/01/07 04:27:24;;;;;;;206.40;91.82;;;;;;;0.14;100.00;98238.19;2097159;28;20218;-72
2021/01/07 04:28:25;;;;;;;203.33;94.30;;;;;;;0.13;100.00;98231.38;2104147;28;20245;-72
2021/01/07 04:29:26;;;;;;;209.77;96.07;;;;;;;0.11;100.00;98237.91;2106247;28;20221;-72
2021/01/07 04:30:27;;;;;;;224.87;97.77;;;;;;;0.12;100.00;98236.88;2106227;28;20282;-72
2021/01/07 04:31:28;;;;;;;228.50;96.80;;;;;;;0.12;100.00;98247.34;2105556;28;20221;-72
2021/01/07 04:32:29;;;;;;;220.57;95.53;;;;;;;0.11;100.00;98243.16;2105609;28;20218;-72
2021/01/07 04:33:32;;;;;;;219.32;94.72;;;;;;;0.15;100.00;98237.16;2106218;28;20221;-72
2021/01/07 04:34:34;;;;;;;214.32;92.95;;;;;;;0.12;100.00;98239.50;2106409;28;20225;-73
2021/01/07 04:35:34;;;;;;;209.65;93.18;;;;;;;0.10;100.00;98244.19;2106330;28;20220;-73
2021/01/07 04:36:35;;;;;;;213.03;91.63;;;;;;;0.10;100.00;98246.81;2106362;28;20237;-72
2021/01/07 04:37:37;;;;;;;209.55;95.10;;;;;;;0.08;100.00;98248.88;2106262;28;20690;-73
2021/01/07 04:38:38;;;;;;;201.40;90.13;;;;;;;0.09;100.00;98240.78;2103800;28;20252;-73